createdAt,value
2023-03-19T00:09:15.304Z,5.90
2023-03-19T00:14:20.304Z,6.65
2023-03-19T00:19:23.745Z,5.72
2023-03-19T00:24:27.210Z,5.10
2023-03-19T00:29:31.990Z,5.78
2023-03-19T00:39:38.759Z,5.10
2023-03-19T00:44:43.771Z,5.13
2023-03-19T00:49:47.452Z,5.20
2023-03-19T00:54:51.255Z,4.57
2023-03-19T00:59:56.227Z,5.57
2023-03-19T01:04:59.719Z,5.60
2023-03-19T01:10:04.110Z,5.25
2023-03-19T01:15:10.473Z,5.20
2023-03-19T01:20:15.504Z,6.30
2023-03-19T01:25:18.916Z,5.68
2023-03-19T01:30:23.714Z,5.32
2023-03-19T01:40:31.773Z,5.75
2023-03-19T01:45:38.794Z,5.75
2023-03-19T01:50:45.766Z,5.97
2023-03-19T01:55:49.920Z,5.00
2023-03-19T02:00:55.213Z,5.22
2023-03-19T02:05:59.849Z,5.07
2023-03-19T02:11:03.220Z,5.70
2023-03-19T02:16:09.059Z,5.72
2023-03-19T02:21:15.836Z,7.82
2023-03-19T02:26:22.700Z,7.40
2023-03-19T02:31:26.493Z,6.95
2023-03-19T02:36:34.281Z,7.47
2023-03-19T02:41:43.006Z,6.90
2023-03-19T02:46:46.488Z,6.82
2023-03-19T02:51:50.064Z,5.80
2023-03-19T02:56:54.947Z,5.93
2023-03-19T03:01:58.405Z,5.50
2023-03-19T03:07:02.165Z,5.43
2023-03-19T03:12:08.616Z,6.07
2023-03-19T03:17:12.199Z,6.07
2023-03-19T03:22:15.550Z,5.88
2023-03-19T03:27:20.308Z,5.43
2023-03-19T03:32:23.749Z,7.53
2023-03-19T03:37:27.109Z,6.13
2023-03-19T03:42:31.898Z,5.65
2023-03-19T03:47:35.197Z,6.20
2023-03-19T03:52:38.634Z,5.22
2023-03-19T03:57:43.594Z,5.75
2023-03-19T04:02:47.379Z,6.03
2023-03-19T04:07:50.794Z,6.47
2023-03-19T04:12:55.643Z,7.90
2023-03-19T04:23:03.534Z,8.85
2023-03-19T04:28:09.328Z,9.65
2023-03-19T04:33:13.304Z,9.60
2023-03-19T04:38:16.834Z,7.20
2023-03-19T04:43:22.186Z,7.18
2023-03-19T04:48:26.657Z,6.22
2023-03-19T04:53:30.728Z,7.05
2023-03-19T04:58:35.661Z,6.37
2023-03-19T05:03:39.358Z,7.75
2023-03-19T05:08:42.938Z,7.18
2023-03-19T05:13:47.861Z,7.72
2023-03-19T05:23:55.028Z,7.28
2023-03-19T05:28:59.903Z,8.30
2023-03-19T05:39:06.568Z,8.05
2023-03-19T05:44:11.631Z,7.72
2023-03-19T05:49:15.463Z,5.97
2023-03-19T05:54:19.164Z,5.00
2023-03-19T05:59:23.922Z,5.97
2023-03-19T06:04:27.490Z,4.72
2023-03-19T06:09:31.267Z,5.00
2023-03-19T06:14:36.049Z,4.80
2023-03-19T06:19:39.697Z,4.20
2023-03-19T06:24:43.234Z,5.60
2023-03-19T06:29:47.990Z,3.47
2023-03-19T06:34:51.442Z,3.47
2023-03-19T06:39:55.511Z,3.77
2023-03-19T06:45:00.328Z,4.05
2023-03-19T06:50:04.686Z,3.05
2023-03-19T06:55:09.442Z,4.05
2023-03-19T07:00:15.794Z,3.72
2023-03-19T07:05:19.478Z,2.97
2023-03-19T07:15:27.793Z,2.50
2023-03-19T07:20:31.246Z,3.17
2023-03-19T07:25:34.654Z,3.00
2023-03-19T07:30:40.985Z,3.95
2023-03-19T07:35:44.343Z,3.20
2023-03-19T07:41:00.980Z,3.00
2023-03-19T07:46:08.147Z,2.90
2023-03-19T07:51:11.577Z,3.03
2023-03-19T07:56:15.120Z,3.50
2023-03-19T08:06:24.150Z,3.60
2023-03-19T08:11:30.115Z,3.65
2023-03-19T08:16:34.929Z,3.90
2023-03-19T08:21:38.390Z,3.78
2023-03-19T08:26:41.992Z,4.68
2023-03-19T08:31:46.880Z,5.65
2023-03-19T08:36:50.588Z,5.70
2023-03-19T08:41:53.959Z,5.45
2023-03-19T08:46:58.790Z,5.47
2023-03-19T08:52:02.164Z,3.30
2023-03-19T08:57:05.628Z,3.40
2023-03-19T09:02:11.990Z,3.13
2023-03-19T09:07:16.167Z,3.42
2023-03-19T09:12:20.066Z,3.45
2023-03-19T09:17:24.834Z,3.50
2023-03-19T09:27:31.329Z,3.03
2023-03-19T09:32:36.216Z,3.63
2023-03-19T09:43:00.908Z,3.50
2023-03-19T09:48:09.548Z,2.70
2023-03-19T09:53:21.259Z,3.00
2023-03-19T09:58:31.901Z,3.20
2023-03-19T10:03:54.226Z,2.80
2023-03-19T10:09:10.098Z,3.20
2023-03-19T10:14:37.708Z,3.38
2023-03-19T10:19:48.218Z,2.60
2023-03-19T10:24:53.649Z,2.85
2023-03-19T10:29:57.242Z,2.75
2023-03-19T10:35:09.104Z,2.97
2023-03-19T10:40:21.372Z,2.83
2023-03-19T10:45:28.256Z,3.20
2023-03-19T10:50:36.996Z,2.63
2023-03-19T10:55:45.936Z,2.83
2023-03-19T11:00:51.335Z,3.30
2023-03-19T11:06:06.601Z,3.30
2023-03-19T11:11:25.053Z,2.95
2023-03-19T11:16:28.566Z,2.80
2023-03-19T11:21:34.316Z,3.42
2023-03-19T11:26:37.757Z,2.90
2023-03-19T11:31:50.257Z,3.25
2023-03-19T11:37:03.579Z,2.95
2023-03-19T11:42:30.278Z,3.42
2023-03-19T11:47:43.638Z,3.20
2023-03-19T11:53:03.236Z,3.03
2023-03-19T11:58:31.715Z,3.20
2023-03-19T12:03:58.783Z,3.83
2023-03-19T12:09:11.003Z,3.20
2023-03-19T12:14:28.597Z,3.80
2023-03-19T12:20:06.835Z,4.13
2023-03-19T12:25:25.201Z,3.30
2023-03-19T12:30:38.482Z,3.95
2023-03-19T12:35:43.368Z,3.10
2023-03-19T12:40:53.761Z,3.45
2023-03-19T12:46:01.595Z,3.92
2023-03-19T12:51:10.744Z,3.80
2023-03-19T12:56:21.620Z,3.63
2023-03-19T13:01:28.882Z,3.60
2023-03-19T13:06:37.338Z,3.50
2023-03-19T13:11:47.865Z,3.00
2023-03-19T13:16:58.920Z,3.05
2023-03-19T13:22:05.796Z,3.63
2023-03-19T13:27:17.754Z,3.63
2023-03-19T13:32:26.829Z,3.25
2023-03-19T13:37:30.225Z,3.20
2023-03-19T13:42:39.680Z,3.10
2023-03-19T13:47:44.483Z,3.30
2023-03-19T13:52:50.986Z,3.10
2023-03-19T13:58:12.229Z,3.30
2023-03-19T14:03:23.526Z,3.20
2023-03-19T14:08:29.907Z,3.25
2023-03-19T14:13:39.477Z,3.45
2023-03-19T14:18:44.611Z,3.10
2023-03-19T14:23:56.336Z,3.28
2023-03-19T14:29:04.376Z,3.35
2023-03-19T14:34:19.518Z,3.33
2023-03-19T14:39:25.001Z,3.22
2023-03-19T14:45:22.107Z,2.70
2023-03-19T14:50:41.718Z,2.95
2023-03-19T14:55:51.071Z,3.05
2023-03-19T15:00:56.873Z,3.10
2023-03-19T15:06:02.781Z,3.10
2023-03-19T15:11:25.348Z,2.90
2023-03-19T15:16:38.739Z,3.10
2023-03-19T15:21:42.304Z,3.47
2023-03-19T15:26:47.279Z,3.63
2023-03-19T15:32:03.781Z,3.85
2023-03-19T15:37:12.251Z,3.40
2023-03-19T15:42:17.872Z,4.05
2023-03-19T15:47:26.026Z,4.57
2023-03-19T15:52:33.462Z,5.10
2023-03-19T15:57:39.983Z,4.90
2023-03-19T16:02:48.551Z,5.38
2023-03-19T16:07:57.547Z,4.90
2023-03-19T16:13:04.202Z,4.50
2023-03-19T16:18:27.560Z,4.75
2023-03-19T16:23:34.392Z,4.55
2023-03-19T16:28:45.303Z,4.55
2023-03-19T16:33:52.823Z,5.07
2023-03-19T16:38:58.480Z,5.50
2023-03-19T16:44:16.672Z,5.78
2023-03-19T16:49:21.640Z,5.18
2023-03-19T16:59:32.424Z,5.43
2023-03-19T17:04:37.198Z,6.25
2023-03-19T17:09:40.902Z,5.90
2023-03-19T17:14:44.916Z,6.15
2023-03-19T17:19:51.579Z,6.13
2023-03-19T17:24:56.672Z,5.47
2023-03-19T17:35:04.817Z,6.30
2023-03-19T17:40:17.926Z,5.60
2023-03-19T17:45:25.484Z,6.22
2023-03-19T17:50:31.799Z,7.05
2023-03-19T17:55:35.312Z,7.47
2023-03-19T18:00:39.095Z,7.63
2023-03-19T18:05:44.601Z,6.20
2023-03-19T18:10:48.433Z,6.32
2023-03-19T18:15:52.234Z,8.02
2023-03-19T18:20:58.939Z,8.60
2023-03-19T18:26:02.908Z,9.55
2023-03-19T18:31:13.942Z,8.00
2023-03-19T18:36:24.497Z,8.18
2023-03-19T18:41:29.896Z,8.70
2023-03-19T18:46:34.613Z,7.55
2023-03-19T18:51:45.520Z,8.73
2023-03-19T18:56:59.661Z,9.10
2023-03-19T19:02:10.971Z,10.35
2023-03-19T19:07:16.744Z,9.40
2023-03-19T19:12:20.828Z,10.90
2023-03-19T19:17:24.888Z,9.10
2023-03-19T19:22:30.051Z,9.03
2023-03-19T19:27:33.640Z,8.85
2023-03-19T19:32:37.106Z,9.75
2023-03-19T19:37:42.006Z,8.60
2023-03-19T19:47:50.041Z,8.30
2023-03-19T19:52:55.583Z,8.38
2023-03-19T19:57:59.716Z,8.32
2023-03-19T20:03:03.072Z,7.70
2023-03-19T20:08:08.190Z,7.97
2023-03-19T20:13:25.075Z,7.10
2023-03-19T20:18:31.947Z,7.60
2023-03-19T20:23:37.862Z,9.20
2023-03-19T20:28:42.104Z,7.20
2023-03-19T20:33:45.471Z,7.32
2023-03-19T20:38:50.986Z,6.53
2023-03-19T20:43:55.267Z,6.95
2023-03-19T20:48:58.766Z,7.60
2023-03-19T20:54:05.013Z,7.40
2023-03-19T20:59:12.937Z,7.72
2023-03-19T21:04:19.749Z,7.20
2023-03-19T21:09:26.230Z,8.05
2023-03-19T21:14:29.781Z,7.60
2023-03-19T21:19:33.125Z,7.30
2023-03-19T21:24:38.038Z,7.72
2023-03-19T21:34:44.704Z,7.22
2023-03-19T21:39:49.451Z,6.47
2023-03-19T21:44:58.983Z,7.53
2023-03-19T21:50:02.794Z,7.22
2023-03-19T21:55:09.750Z,6.80
2023-03-19T22:00:16.475Z,6.82
2023-03-19T22:05:23.591Z,6.60
2023-03-19T22:10:30.914Z,6.50
2023-03-19T22:15:37.796Z,6.53
2023-03-19T22:20:42.530Z,6.70
2023-03-19T22:25:49.202Z,6.85
2023-03-19T22:30:52.586Z,6.97
2023-03-19T22:35:56.884Z,6.60
2023-03-19T22:41:02.849Z,6.50
2023-03-19T22:46:09.201Z,6.00
2023-03-19T22:51:17.430Z,6.70
2023-03-19T22:56:23.423Z,6.88
2023-03-19T23:01:32.858Z,6.80
2023-03-19T23:06:36.390Z,7.20
2023-03-19T23:11:41.200Z,6.80
2023-03-19T23:16:47.044Z,6.53
2023-03-19T23:21:50.790Z,6.55
2023-03-19T23:26:57.680Z,6.45
2023-03-19T23:32:01.070Z,6.47
2023-03-19T23:37:04.590Z,6.75
2023-03-19T23:42:13.093Z,6.30
2023-03-19T23:47:17.020Z,6.60
2023-03-19T23:52:20.483Z,6.17
2023-03-19T23:57:26.747Z,5.72
